createdAt,value
2023-08-15T00:03:06.486Z,1018.1
2023-08-15T00:08:21.004Z,1018
2023-08-15T00:19:33.131Z,1018
2023-08-15T00:25:16.253Z,1018.1
2023-08-15T00:31:00.439Z,1018.1
2023-08-15T00:36:29.738Z,1017.9
2023-08-15T00:41:53.352Z,1017.6
2023-08-15T00:47:40.748Z,1017.8
2023-08-15T00:53:23.492Z,1017.7
2023-08-15T00:58:36.197Z,1017.8
2023-08-15T01:09:42.972Z,1018.3
2023-08-15T01:15:25.266Z,1018.1
2023-08-15T01:20:56.743Z,1017.9
2023-08-15T01:26:40.794Z,1017.9
2023-08-15T01:32:03.986Z,1017.6
2023-08-15T01:37:41.055Z,1017.4
2023-08-15T01:43:31.358Z,1017.9
2023-08-15T01:48:40.995Z,1018.2
2023-08-15T01:54:17.549Z,1018.1
2023-08-15T02:00:08.726Z,1018
2023-08-15T02:05:49.173Z,1017.6
2023-08-15T02:10:58.493Z,1017.5
2023-08-15T02:16:43.225Z,1017.7
2023-08-15T02:22:26.113Z,1017.7
2023-08-15T02:28:00.516Z,1017.7
2023-08-15T02:33:16.362Z,1017.8
2023-08-15T02:39:09.767Z,1017.9
2023-08-15T02:44:45.024Z,1017.7
2023-08-15T02:50:06.577Z,1017.6
2023-08-15T02:55:30.837Z,1017.5
2023-08-15T03:01:18.138Z,1017.5
2023-08-15T03:07:01.012Z,1017.7
2023-08-15T03:12:14.874Z,1017.6
2023-08-15T03:18:10.050Z,1017.7
2023-08-15T03:23:21.992Z,1017.9
2023-08-15T03:28:58.054Z,1018
2023-08-15T03:34:47.032Z,1017.9
2023-08-15T03:40:06.214Z,1017.7
2023-08-15T03:45:43.000Z,1017.8
2023-08-15T03:51:38.417Z,1017.9
2023-08-15T03:56:55.030Z,1018.1
2023-08-15T04:02:34.713Z,1018
2023-08-15T04:08:02.585Z,1018
2023-08-15T04:19:17.724Z,1018.1
2023-08-15T04:24:51.130Z,1018.1
2023-08-15T04:30:21.186Z,1018.2
2023-08-15T04:36:10.116Z,1018.2
2023-08-15T04:41:27.178Z,1018.1
2023-08-15T04:47:15.611Z,1018.4
2023-08-15T04:52:52.386Z,1018.8
2023-08-15T04:58:22.688Z,1019
2023-08-15T05:14:49.663Z,1018.8
2023-08-15T05:20:26.601Z,1018.8
2023-08-15T05:26:16.902Z,1019
2023-08-15T05:31:35.945Z,1019
2023-08-15T05:37:08.729Z,1019.1
2023-08-15T05:42:47.551Z,1019.2
2023-08-15T05:53:56.173Z,1019.3
2023-08-15T05:59:36.386Z,1019.3
2023-08-15T06:05:07.957Z,1019.4
2023-08-15T06:10:54.425Z,1019.5
2023-08-15T06:16:33.368Z,1019.3
2023-08-15T06:21:51.753Z,1019.2
2023-08-15T06:27:46.377Z,1019.3
2023-08-15T06:33:21.486Z,1019.3
2023-08-15T06:38:34.285Z,1019.4
2023-08-15T06:44:05.440Z,1019.5
2023-08-15T06:49:52.617Z,1019.5
2023-08-15T06:55:21.860Z,1019.5
2023-08-15T07:00:51.207Z,1019.5
2023-08-15T07:06:27.784Z,1019.4
2023-08-15T07:12:27.296Z,1019.2
2023-08-15T07:17:54.925Z,1019
2023-08-15T07:34:41.092Z,1018.9
2023-08-15T07:40:16.787Z,1019
2023-08-15T07:45:48.888Z,1019
2023-08-15T07:51:19.910Z,1019
2023-08-15T07:56:56.927Z,1019
2023-08-15T08:02:30.369Z,1018.8
2023-08-15T08:08:29.551Z,1018.5
2023-08-15T08:19:50.590Z,1017.9
2023-08-15T08:25:12.574Z,1017.8
2023-08-15T08:30:54.162Z,1017.9
2023-08-15T08:36:36.800Z,1017.9
2023-08-15T08:42:01.813Z,1017.8
2023-08-15T08:47:48.694Z,1017.7
2023-08-15T08:53:31.707Z,1017.6
2023-08-15T09:04:38.693Z,1017.4
2023-08-15T09:10:20.737Z,1017.4
2023-08-15T09:15:39.337Z,1017.4
2023-08-15T09:21:35.255Z,1017.5
2023-08-15T09:26:55.118Z,1017.5
2023-08-15T09:33:00.004Z,1017.2
2023-08-15T09:38:24.368Z,1017.3
2023-08-15T09:44:00.468Z,1017.3
2023-08-15T09:49:36.119Z,1017.2
2023-08-15T09:55:12.852Z,1017.2
2023-08-15T10:00:55.190Z,1017.1
2023-08-15T10:06:34.342Z,1017.1
2023-08-15T10:12:03.884Z,1017.1
2023-08-15T10:17:43.877Z,1017.1
2023-08-15T10:28:55.228Z,1017
2023-08-15T10:34:42.939Z,1017
2023-08-15T10:40:08.822Z,1016.8
2023-08-15T10:45:48.872Z,1017
2023-08-15T10:51:48.050Z,1016.9
2023-08-15T10:57:20.716Z,1017
2023-08-15T11:02:53.801Z,1016.8
2023-08-15T11:08:28.995Z,1016.9
2023-08-15T11:13:57.756Z,1016.8
2023-08-15T11:19:53.715Z,1016.6
2023-08-15T11:25:34.384Z,1016.7
2023-08-15T11:31:22.322Z,1016.5
2023-08-15T11:36:50.837Z,1016.5
2023-08-15T11:42:23.809Z,1016.3
2023-08-15T11:48:05.107Z,1016.1
2023-08-15T11:53:49.478Z,1016.2
2023-08-15T11:59:12.861Z,1016.2
2023-08-15T12:05:16.697Z,1016.1
2023-08-15T12:10:33.684Z,1016
2023-08-15T12:16:19.346Z,1016.1
2023-08-15T12:21:55.488Z,1016.1
2023-08-15T12:27:53.798Z,1015.9
2023-08-15T12:33:27.295Z,1015.6
2023-08-15T12:44:32.207Z,1015.5
2023-08-15T12:50:12.414Z,1015.5
2023-08-15T12:56:13.488Z,1015.6
2023-08-15T13:01:33.867Z,1015.4
2023-08-15T13:07:24.915Z,1015.1
2023-08-15T13:12:53.844Z,1015.2
2023-08-15T13:18:43.989Z,1015.2
2023-08-15T13:30:11.841Z,1015
2023-08-15T13:35:43.877Z,1015.1
2023-08-15T13:41:29.568Z,1015.1
2023-08-15T13:46:47.721Z,1015
2023-08-15T13:52:38.729Z,1014.9
2023-08-15T13:58:16.574Z,1014.8
2023-08-15T14:04:02.847Z,1014.9
2023-08-15T14:09:43.593Z,1014.7
2023-08-15T14:15:23.826Z,1014.7
2023-08-15T14:20:53.048Z,1014.7
2023-08-15T14:26:46.747Z,1014.7
2023-08-15T14:32:05.112Z,1014.7
2023-08-15T14:37:47.670Z,1014.5
2023-08-15T14:43:35.160Z,1014.5
2023-08-15T14:49:12.911Z,1014.4
2023-08-15T14:54:45.444Z,1014.3
2023-08-15T15:00:24.486Z,1014.1
2023-08-15T15:06:06.675Z,1014.3
2023-08-15T15:11:55.952Z,1014.3
2023-08-15T15:17:32.159Z,1014.3
2023-08-15T15:23:21.041Z,1014.6
2023-08-15T15:34:40.751Z,1014.5
2023-08-15T15:39:59.172Z,1014.6
2023-08-15T15:45:40.877Z,1014.4
2023-08-15T15:51:15.298Z,1014.5
2023-08-15T15:57:01.765Z,1014.6
2023-08-15T16:02:32.265Z,1014.6
2023-08-15T16:08:27.214Z,1014.6
2023-08-15T16:13:49.599Z,1014.7
2023-08-15T16:19:26.939Z,1014.8
2023-08-15T16:25:00.086Z,1014.7
2023-08-15T16:30:48.769Z,1014.7
2023-08-15T16:36:30.584Z,1014.8
2023-08-15T16:42:15.609Z,1014.9
2023-08-15T16:47:54.894Z,1014.9
2023-08-15T16:53:37.176Z,1014.9
2023-08-15T16:59:11.589Z,1015
2023-08-15T17:04:54.554Z,1015.1
2023-08-15T17:10:35.891Z,1015
2023-08-15T17:16:12.837Z,1015.1
2023-08-15T17:21:46.236Z,1015.1
2023-08-15T17:27:32.668Z,1015.1
2023-08-15T17:33:08.157Z,1015.4
2023-08-15T17:38:37.115Z,1015.4
2023-08-15T17:44:12.828Z,1015.4
2023-08-15T17:49:53.842Z,1015.5
2023-08-15T17:55:15.724Z,1015.7
2023-08-15T18:00:53.797Z,1015.8
2023-08-15T18:06:56.668Z,1015.9
2023-08-15T18:12:35.015Z,1015.8
2023-08-15T18:18:08.328Z,1016
2023-08-15T18:23:22.992Z,1016.1
2023-08-15T18:34:45.794Z,1016.3
2023-08-15T18:40:11.443Z,1016.4
2023-08-15T18:45:58.660Z,1016.5
2023-08-15T18:51:36.857Z,1016.5
2023-08-15T18:57:18.170Z,1016.8
2023-08-15T19:02:34.049Z,1016.8
2023-08-15T19:08:06.762Z,1016.9
2023-08-15T19:13:45.098Z,1017
2023-08-15T19:19:31.144Z,1017
2023-08-15T19:25:19.273Z,1017
2023-08-15T19:30:53.872Z,1017.1
2023-08-15T19:36:25.534Z,1017.1
2023-08-15T19:41:41.311Z,1017.4
2023-08-15T19:47:20.710Z,1017.4
2023-08-15T19:53:08.189Z,1017.3
2023-08-15T19:58:38.980Z,1017.3
2023-08-15T20:10:08.819Z,1017.4
2023-08-15T20:15:20.615Z,1017.6
2023-08-15T20:21:05.173Z,1017.6
2023-08-15T20:26:38.178Z,1017.7
2023-08-15T20:32:28.095Z,1017.7
2023-08-15T20:37:58.046Z,1017.8
2023-08-15T20:43:21.626Z,1017.7
2023-08-15T20:54:23.199Z,1018.4
2023-08-15T21:00:18.849Z,1018.3
2023-08-15T21:05:35.723Z,1018.4
2023-08-15T21:11:14.868Z,1018.5
2023-08-15T21:16:44.840Z,1018.4
2023-08-15T21:22:22.142Z,1018.5
2023-08-15T21:27:54.833Z,1018.5
2023-08-15T21:33:40.755Z,1018.6
2023-08-15T21:39:13.143Z,1018.7
2023-08-15T21:44:52.745Z,1018.7
2023-08-15T21:50:13.591Z,1018.9
2023-08-15T21:56:05.592Z,1019
2023-08-15T22:01:25.595Z,1019.1
2023-08-15T22:07:22.871Z,1019.2
2023-08-15T22:12:56.762Z,1019.2
2023-08-15T22:18:19.221Z,1019.1
2023-08-15T22:23:42.547Z,1019.1
2023-08-15T22:29:15.960Z,1019.4
2023-08-15T22:35:07.698Z,1019.5
2023-08-15T22:40:36.942Z,1019.4
2023-08-15T22:46:03.624Z,1019.5
2023-08-15T22:51:37.444Z,1019.5
2023-08-15T22:57:20.476Z,1019.3
2023-08-15T23:03:06.893Z,1019.3
2023-08-15T23:08:31.345Z,1019.2
2023-08-15T23:14:04.822Z,1019.2
2023-08-15T23:19:36.999Z,1019.2
2023-08-15T23:25:13.850Z,1019.2
2023-08-15T23:30:44.865Z,1019.1
2023-08-15T23:36:40.695Z,1018.9
2023-08-15T23:41:49.832Z,1019.3
2023-08-15T23:47:44.755Z,1019.4
2023-08-15T23:53:18.813Z,1019.5
